sensor_id;sensor_type;location;lat;lon;timestamp;P1;durP1;ratioP1;P2;durP2;ratioP2
55869;SDS011;41790;50.940;4.560;2023-02-04T00:01:58;9.40;;;5.13;;
55869;SDS011;41790;50.940;4.560;2023-02-04T00:04:34;7.70;;;4.40;;
55869;SDS011;41790;50.940;4.560;2023-02-04T00:07:10;11.80;;;5.03;;
55869;SDS011;41790;50.940;4.560;2023-02-04T00:09:38;10.00;;;5.60;;
55869;SDS011;41790;50.940;4.560;2023-02-04T00:12:14;11.85;;;4.70;;
55869;SDS011;41790;50.940;4.560;2023-02-04T00:14:43;11.93;;;5.10;;
55869;SDS011;41790;50.940;4.560;2023-02-04T00:17:11;7.75;;;4.32;;
55869;SDS011;41790;50.940;4.560;2023-02-04T00:19:40;10.23;;;5.18;;
55869;SDS011;41790;50.940;4.560;2023-02-04T00:22:07;7.65;;;4.55;;
55869;SDS011;41790;50.940;4.560;2023-02-04T00:24:33;12.13;;;5.20;;
55869;SDS011;41790;50.940;4.560;2023-02-04T00:27:00;8.02;;;4.57;;
55869;SDS011;41790;50.940;4.560;2023-02-04T00:29:27;8.73;;;4.90;;
55869;SDS011;41790;50.940;4.560;2023-02-04T00:31:54;8.05;;;4.47;;
55869;SDS011;41790;50.940;4.560;2023-02-04T00:34:30;7.80;;;5.40;;
55869;SDS011;41790;50.940;4.560;2023-02-04T00:36:59;6.28;;;4.20;;
55869;SDS011;41790;50.940;4.560;2023-02-04T00:39:28;7.75;;;4.18;;
55869;SDS011;41790;50.940;4.560;2023-02-04T00:41:54;13.80;;;5.00;;
55869;SDS011;41790;50.940;4.560;2023-02-04T00:44:35;7.47;;;4.68;;
55869;SDS011;41790;50.940;4.560;2023-02-04T00:49:43;8.98;;;4.18;;
55869;SDS011;41790;50.940;4.560;2023-02-04T00:52:10;11.48;;;5.38;;
55869;SDS011;41790;50.940;4.560;2023-02-04T00:54:36;8.68;;;5.05;;
55869;SDS011;41790;50.940;4.560;2023-02-04T00:57:02;12.40;;;5.82;;
55869;SDS011;41790;50.940;4.560;2023-02-04T00:59:30;13.98;;;5.65;;
55869;SDS011;41790;50.940;4.560;2023-02-04T01:02:03;9.65;;;4.63;;
55869;SDS011;41790;50.940;4.560;2023-02-04T01:04:29;11.20;;;5.20;;
55869;SDS011;41790;50.940;4.560;2023-02-04T01:07:05;10.18;;;5.10;;
55869;SDS011;41790;50.940;4.560;2023-02-04T01:09:41;10.63;;;5.10;;
55869;SDS011;41790;50.940;4.560;2023-02-04T01:12:32;8.68;;;5.60;;
55869;SDS011;41790;50.940;4.560;2023-02-04T01:15:09;10.60;;;5.18;;
55869;SDS011;41790;50.940;4.560;2023-02-04T01:17:37;10.20;;;5.47;;
55869;SDS011;41790;50.940;4.560;2023-02-04T01:20:06;11.40;;;5.32;;
55869;SDS011;41790;50.940;4.560;2023-02-04T01:22:33;12.30;;;5.22;;
55869;SDS011;41790;50.940;4.560;2023-02-04T01:24:59;10.80;;;5.93;;
55869;SDS011;41790;50.940;4.560;2023-02-04T01:27:26;15.02;;;6.25;;
55869;SDS011;41790;50.940;4.560;2023-02-04T01:29:56;11.80;;;5.75;;
55869;SDS011;41790;50.940;4.560;2023-02-04T01:32:32;13.02;;;6.55;;
55869;SDS011;41790;50.940;4.560;2023-02-04T01:34:58;14.20;;;5.63;;
55869;SDS011;41790;50.940;4.560;2023-02-04T01:37:24;9.02;;;5.00;;
55869;SDS011;41790;50.940;4.560;2023-02-04T01:40:00;12.38;;;5.63;;
55869;SDS011;41790;50.940;4.560;2023-02-04T01:42:37;13.98;;;6.15;;
55869;SDS011;41790;50.940;4.560;2023-02-04T01:45:15;11.70;;;5.65;;
55869;SDS011;41790;50.940;4.560;2023-02-04T01:47:44;9.65;;;6.18;;
55869;SDS011;41790;50.940;4.560;2023-02-04T01:50:21;12.00;;;6.00;;
55869;SDS011;41790;50.940;4.560;2023-02-04T01:52:57;11.82;;;5.90;;
55869;SDS011;41790;50.940;4.560;2023-02-04T01:55:27;13.60;;;5.75;;
55869;SDS011;41790;50.940;4.560;2023-02-04T01:57:57;13.68;;;5.20;;
55869;SDS011;41790;50.940;4.560;2023-02-04T02:00:31;11.80;;;5.20;;
55869;SDS011;41790;50.940;4.560;2023-02-04T02:02:59;14.55;;;5.60;;
55869;SDS011;41790;50.940;4.560;2023-02-04T02:05:40;16.58;;;6.03;;
55869;SDS011;41790;50.940;4.560;2023-02-04T02:08:11;9.63;;;5.35;;
55869;SDS011;41790;50.940;4.560;2023-02-04T02:10:38;9.43;;;4.35;;
55869;SDS011;41790;50.940;4.560;2023-02-04T02:13:13;9.50;;;4.80;;
55869;SDS011;41790;50.940;4.560;2023-02-04T02:15:44;9.43;;;6.07;;
55869;SDS011;41790;50.940;4.560;2023-02-04T02:18:12;12.00;;;4.70;;
55869;SDS011;41790;50.940;4.560;2023-02-04T02:20:38;13.43;;;5.07;;
55869;SDS011;41790;50.940;4.560;2023-02-04T02:23:20;10.27;;;4.30;;
55869;SDS011;41790;50.940;4.560;2023-02-04T02:26:06;10.93;;;3.95;;
55869;SDS011;41790;50.940;4.560;2023-02-04T02:28:32;12.18;;;4.25;;
55869;SDS011;41790;50.940;4.560;2023-02-04T02:31:12;10.48;;;4.93;;
55869;SDS011;41790;50.940;4.560;2023-02-04T02:33:46;10.00;;;3.78;;
55869;SDS011;41790;50.940;4.560;2023-02-04T02:36:14;10.13;;;4.78;;
55869;SDS011;41790;50.940;4.560;2023-02-04T02:38:47;8.20;;;4.47;;
55869;SDS011;41790;50.940;4.560;2023-02-04T02:41:26;6.57;;;3.53;;
55869;SDS011;41790;50.940;4.560;2023-02-04T02:43:55;9.20;;;4.22;;
55869;SDS011;41790;50.940;4.560;2023-02-04T02:46:31;8.35;;;4.43;;
55869;SDS011;41790;50.940;4.560;2023-02-04T02:49:02;7.78;;;3.17;;
55869;SDS011;41790;50.940;4.560;2023-02-04T02:51:49;7.72;;;3.83;;
55869;SDS011;41790;50.940;4.560;2023-02-04T02:54:28;8.23;;;4.00;;
55869;SDS011;41790;50.940;4.560;2023-02-04T02:57:00;9.55;;;3.95;;
55869;SDS011;41790;50.940;4.560;2023-02-04T02:59:44;6.75;;;3.58;;
55869;SDS011;41790;50.940;4.560;2023-02-04T03:02:21;5.75;;;2.70;;
55869;SDS011;41790;50.940;4.560;2023-02-04T03:04:49;7.80;;;3.30;;
55869;SDS011;41790;50.940;4.560;2023-02-04T03:07:31;9.75;;;3.28;;
55869;SDS011;41790;50.940;4.560;2023-02-04T03:10:14;4.20;;;2.55;;
55869;SDS011;41790;50.940;4.560;2023-02-04T03:12:44;5.18;;;2.97;;
55869;SDS011;41790;50.940;4.560;2023-02-04T03:15:11;6.97;;;3.15;;
55869;SDS011;41790;50.940;4.560;2023-02-04T03:17:38;6.68;;;2.95;;
55869;SDS011;41790;50.940;4.560;2023-02-04T03:20:05;7.03;;;3.08;;
55869;SDS011;41790;50.940;4.560;2023-02-04T03:22:32;7.45;;;3.47;;
55869;SDS011;41790;50.940;4.560;2023-02-04T03:24:58;5.57;;;2.75;;
55869;SDS011;41790;50.940;4.560;2023-02-04T03:27:36;10.18;;;2.85;;
55869;SDS011;41790;50.940;4.560;2023-02-04T03:30:11;11.00;;;4.10;;
55869;SDS011;41790;50.940;4.560;2023-02-04T03:32:44;6.70;;;2.78;;
55869;SDS011;41790;50.940;4.560;2023-02-04T03:35:21;5.93;;;2.45;;
55869;SDS011;41790;50.940;4.560;2023-02-04T03:37:47;8.25;;;2.75;;
55869;SDS011;41790;50.940;4.560;2023-02-04T03:40:20;6.53;;;3.58;;
55869;SDS011;41790;50.940;4.560;2023-02-04T03:42:49;7.85;;;3.08;;
55869;SDS011;41790;50.940;4.560;2023-02-04T03:45:15;6.82;;;3.10;;
55869;SDS011;41790;50.940;4.560;2023-02-04T03:47:41;7.47;;;3.08;;
55869;SDS011;41790;50.940;4.560;2023-02-04T03:50:19;8.27;;;3.60;;
55869;SDS011;41790;50.940;4.560;2023-02-04T03:52:44;8.15;;;3.17;;
55869;SDS011;41790;50.940;4.560;2023-02-04T03:55:18;4.63;;;2.67;;
55869;SDS011;41790;50.940;4.560;2023-02-04T03:57:57;4.05;;;2.40;;
55869;SDS011;41790;50.940;4.560;2023-02-04T04:00:35;8.70;;;3.15;;
55869;SDS011;41790;50.940;4.560;2023-02-04T04:03:11;7.22;;;2.88;;
55869;SDS011;41790;50.940;4.560;2023-02-04T04:06:05;6.50;;;3.08;;
55869;SDS011;41790;50.940;4.560;2023-02-04T04:08:33;7.80;;;3.13;;
55869;SDS011;41790;50.940;4.560;2023-02-04T04:11:10;6.07;;;3.10;;
55869;SDS011;41790;50.940;4.560;2023-02-04T04:13:46;5.38;;;3.17;;
55869;SDS011;41790;50.940;4.560;2023-02-04T04:16:12;7.72;;;2.80;;
55869;SDS011;41790;50.940;4.560;2023-02-04T04:18:38;9.27;;;3.08;;
55869;SDS011;41790;50.940;4.560;2023-02-04T04:21:06;9.85;;;3.20;;
55869;SDS011;41790;50.940;4.560;2023-02-04T04:23:32;6.35;;;3.20;;
55869;SDS011;41790;50.940;4.560;2023-02-04T04:26:08;6.15;;;3.10;;
55869;SDS011;41790;50.940;4.560;2023-02-04T04:28:44;7.75;;;2.92;;
55869;SDS011;41790;50.940;4.560;2023-02-04T04:31:15;8.73;;;3.13;;
55869;SDS011;41790;50.940;4.560;2023-02-04T04:33:41;6.07;;;2.88;;
55869;SDS011;41790;50.940;4.560;2023-02-04T04:36:07;5.03;;;2.38;;
55869;SDS011;41790;50.940;4.560;2023-02-04T04:38:33;7.72;;;2.92;;
55869;SDS011;41790;50.940;4.560;2023-02-04T04:40:59;5.25;;;2.55;;
55869;SDS011;41790;50.940;4.560;2023-02-04T04:43:25;4.82;;;2.67;;
55869;SDS011;41790;50.940;4.560;2023-02-04T04:45:51;8.63;;;3.10;;
55869;SDS011;41790;50.940;4.560;2023-02-04T04:48:17;6.22;;;3.10;;
55869;SDS011;41790;50.940;4.560;2023-02-04T04:50:45;6.80;;;2.95;;
55869;SDS011;41790;50.940;4.560;2023-02-04T04:53:20;6.47;;;3.10;;
55869;SDS011;41790;50.940;4.560;2023-02-04T04:55:49;5.65;;;2.70;;
55869;SDS011;41790;50.940;4.560;2023-02-04T04:58:26;7.07;;;3.15;;
55869;SDS011;41790;50.940;4.560;2023-02-04T05:00:55;8.38;;;3.35;;
55869;SDS011;41790;50.940;4.560;2023-02-04T05:03:28;6.05;;;3.30;;
55869;SDS011;41790;50.940;4.560;2023-02-04T05:06:03;7.45;;;2.47;;
55869;SDS011;41790;50.940;4.560;2023-02-04T05:08:55;6.82;;;3.17;;
55869;SDS011;41790;50.940;4.560;2023-02-04T05:11:24;6.70;;;3.45;;
55869;SDS011;41790;50.940;4.560;2023-02-04T05:14:00;7.32;;;2.47;;
55869;SDS011;41790;50.940;4.560;2023-02-04T05:16:35;5.55;;;2.88;;
55869;SDS011;41790;50.940;4.560;2023-02-04T05:19:02;10.45;;;3.90;;
55869;SDS011;41790;50.940;4.560;2023-02-04T05:21:43;6.00;;;3.17;;
55869;SDS011;41790;50.940;4.560;2023-02-04T05:24:15;7.05;;;3.42;;
55869;SDS011;41790;50.940;4.560;2023-02-04T05:26:45;7.75;;;3.55;;
55869;SDS011;41790;50.940;4.560;2023-02-04T05:29:14;8.23;;;3.08;;
55869;SDS011;41790;50.940;4.560;2023-02-04T05:31:40;9.15;;;2.63;;
55869;SDS011;41790;50.940;4.560;2023-02-04T05:34:18;7.38;;;3.10;;
55869;SDS011;41790;50.940;4.560;2023-02-04T05:36:53;6.40;;;2.78;;
55869;SDS011;41790;50.940;4.560;2023-02-04T05:39:21;8.25;;;3.13;;
55869;SDS011;41790;50.940;4.560;2023-02-04T05:41:49;5.53;;;2.90;;
55869;SDS011;41790;50.940;4.560;2023-02-04T05:44:18;6.70;;;3.00;;
55869;SDS011;41790;50.940;4.560;2023-02-04T05:46:44;9.27;;;2.80;;
55869;SDS011;41790;50.940;4.560;2023-02-04T05:49:10;3.97;;;2.20;;
55869;SDS011;41790;50.940;4.560;2023-02-04T05:51:47;6.03;;;3.35;;
55869;SDS011;41790;50.940;4.560;2023-02-04T05:57:12;5.15;;;2.70;;
55869;SDS011;41790;50.940;4.560;2023-02-04T05:59:51;6.28;;;2.90;;
55869;SDS011;41790;50.940;4.560;2023-02-04T06:02:27;6.43;;;3.60;;
55869;SDS011;41790;50.940;4.560;2023-02-04T06:04:57;8.05;;;3.70;;
55869;SDS011;41790;50.940;4.560;2023-02-04T06:07:50;6.20;;;3.00;;
55869;SDS011;41790;50.940;4.560;2023-02-04T06:10:17;9.48;;;3.60;;
55869;SDS011;41790;50.940;4.560;2023-02-04T06:12:45;7.88;;;3.97;;
55869;SDS011;41790;50.940;4.560;2023-02-04T06:15:13;8.38;;;3.47;;
55869;SDS011;41790;50.940;4.560;2023-02-04T06:17:51;6.13;;;2.80;;
55869;SDS011;41790;50.940;4.560;2023-02-04T06:20:19;6.97;;;2.90;;
55869;SDS011;41790;50.940;4.560;2023-02-04T06:22:45;9.18;;;3.67;;
55869;SDS011;41790;50.940;4.560;2023-02-04T06:25:18;10.60;;;3.47;;
55869;SDS011;41790;50.940;4.560;2023-02-04T06:27:44;6.18;;;2.63;;
55869;SDS011;41790;50.940;4.560;2023-02-04T06:30:13;10.75;;;3.50;;
55869;SDS011;41790;50.940;4.560;2023-02-04T06:32:39;8.57;;;3.00;;
55869;SDS011;41790;50.940;4.560;2023-02-04T06:35:05;5.90;;;2.33;;
55869;SDS011;41790;50.940;4.560;2023-02-04T06:37:34;6.20;;;2.83;;
55869;SDS011;41790;50.940;4.560;2023-02-04T06:40:00;5.55;;;2.50;;
55869;SDS011;41790;50.940;4.560;2023-02-04T06:42:26;7.78;;;3.25;;
55869;SDS011;41790;50.940;4.560;2023-02-04T06:44:54;6.78;;;2.58;;
55869;SDS011;41790;50.940;4.560;2023-02-04T06:47:21;6.63;;;2.72;;
55869;SDS011;41790;50.940;4.560;2023-02-04T06:49:47;4.90;;;2.25;;
55869;SDS011;41790;50.940;4.560;2023-02-04T06:52:13;9.80;;;3.28;;
55869;SDS011;41790;50.940;4.560;2023-02-04T06:54:42;5.30;;;2.70;;
55869;SDS011;41790;50.940;4.560;2023-02-04T06:57:08;8.65;;;3.05;;
55869;SDS011;41790;50.940;4.560;2023-02-04T06:59:35;4.90;;;2.78;;
55869;SDS011;41790;50.940;4.560;2023-02-04T07:02:06;8.77;;;3.22;;
55869;SDS011;41790;50.940;4.560;2023-02-04T07:04:35;7.80;;;3.03;;
55869;SDS011;41790;50.940;4.560;2023-02-04T07:07:03;5.15;;;2.95;;
55869;SDS011;41790;50.940;4.560;2023-02-04T07:09:29;9.02;;;3.13;;
55869;SDS011;41790;50.940;4.560;2023-02-04T07:11:57;8.02;;;3.22;;
55869;SDS011;41790;50.940;4.560;2023-02-04T07:14:23;5.88;;;3.08;;
55869;SDS011;41790;50.940;4.560;2023-02-04T07:16:55;7.05;;;3.85;;
55869;SDS011;41790;50.940;4.560;2023-02-04T07:19:22;7.15;;;3.45;;
55869;SDS011;41790;50.940;4.560;2023-02-04T07:21:48;5.05;;;2.80;;
55869;SDS011;41790;50.940;4.560;2023-02-04T07:24:20;8.10;;;3.50;;
55869;SDS011;41790;50.940;4.560;2023-02-04T07:26:47;4.53;;;3.40;;
55869;SDS011;41790;50.940;4.560;2023-02-04T07:29:13;11.07;;;4.28;;
55869;SDS011;41790;50.940;4.560;2023-02-04T07:31:39;8.85;;;3.47;;
55869;SDS011;41790;50.940;4.560;2023-02-04T07:34:05;10.73;;;4.47;;
55869;SDS011;41790;50.940;4.560;2023-02-04T07:36:31;9.52;;;3.80;;
55869;SDS011;41790;50.940;4.560;2023-02-04T07:38:57;9.20;;;4.57;;
55869;SDS011;41790;50.940;4.560;2023-02-04T07:41:23;10.48;;;3.85;;
55869;SDS011;41790;50.940;4.560;2023-02-04T07:43:49;9.07;;;3.63;;
55869;SDS011;41790;50.940;4.560;2023-02-04T07:46:24;11.25;;;4.50;;
55869;SDS011;41790;50.940;4.560;2023-02-04T07:48:50;9.50;;;4.20;;
55869;SDS011;41790;50.940;4.560;2023-02-04T07:51:16;14.50;;;4.93;;
55869;SDS011;41790;50.940;4.560;2023-02-04T07:53:42;17.10;;;5.78;;
55869;SDS011;41790;50.940;4.560;2023-02-04T07:56:08;13.52;;;4.93;;
55869;SDS011;41790;50.940;4.560;2023-02-04T07:58:33;13.52;;;4.85;;
55869;SDS011;41790;50.940;4.560;2023-02-04T08:00:59;17.75;;;5.47;;
55869;SDS011;41790;50.940;4.560;2023-02-04T08:03:25;18.40;;;5.20;;
55869;SDS011;41790;50.940;4.560;2023-02-04T08:05:52;15.75;;;5.57;;
55869;SDS011;41790;50.940;4.560;2023-02-04T08:08:22;17.60;;;5.30;;
55869;SDS011;41790;50.940;4.560;2023-02-04T08:10:48;22.92;;;6.28;;
55869;SDS011;41790;50.940;4.560;2023-02-04T08:13:16;17.80;;;6.18;;
55869;SDS011;41790;50.940;4.560;2023-02-04T08:15:42;22.98;;;8.15;;
55869;SDS011;41790;50.940;4.560;2023-02-04T08:18:18;24.00;;;6.88;;
55869;SDS011;41790;50.940;4.560;2023-02-04T08:20:54;18.60;;;6.80;;
55869;SDS011;41790;50.940;4.560;2023-02-04T08:23:23;17.25;;;6.25;;
55869;SDS011;41790;50.940;4.560;2023-02-04T08:25:49;22.15;;;6.35;;
55869;SDS011;41790;50.940;4.560;2023-02-04T08:28:15;29.50;;;7.25;;
55869;SDS011;41790;50.940;4.560;2023-02-04T08:30:42;18.13;;;6.32;;
55869;SDS011;41790;50.940;4.560;2023-02-04T08:33:18;20.60;;;8.07;;
55869;SDS011;41790;50.940;4.560;2023-02-04T08:35:47;17.58;;;7.25;;
55869;SDS011;41790;50.940;4.560;2023-02-04T08:38:13;20.80;;;6.15;;
55869;SDS011;41790;50.940;4.560;2023-02-04T08:40:39;21.65;;;6.15;;
55869;SDS011;41790;50.940;4.560;2023-02-04T08:43:08;15.40;;;5.70;;
55869;SDS011;41790;50.940;4.560;2023-02-04T08:45:36;15.88;;;6.55;;
55869;SDS011;41790;50.940;4.560;2023-02-04T08:48:05;16.67;;;5.72;;
55869;SDS011;41790;50.940;4.560;2023-02-04T08:50:34;19.55;;;7.38;;
55869;SDS011;41790;50.940;4.560;2023-02-04T08:53:00;16.13;;;5.95;;
55869;SDS011;41790;50.940;4.560;2023-02-04T08:55:29;14.77;;;5.25;;
55869;SDS011;41790;50.940;4.560;2023-02-04T08:57:57;13.95;;;5.45;;
55869;SDS011;41790;50.940;4.560;2023-02-04T09:00:28;12.10;;;4.75;;
55869;SDS011;41790;50.940;4.560;2023-02-04T09:02:54;11.48;;;4.90;;
55869;SDS011;41790;50.940;4.560;2023-02-04T09:05:22;9.77;;;4.97;;
55869;SDS011;41790;50.940;4.560;2023-02-04T09:07:48;16.38;;;4.68;;
55869;SDS011;41790;50.940;4.560;2023-02-04T09:10:14;21.08;;;6.15;;
55869;SDS011;41790;50.940;4.560;2023-02-04T09:12:40;10.93;;;4.88;;
55869;SDS011;41790;50.940;4.560;2023-02-04T09:15:08;14.43;;;5.72;;
55869;SDS011;41790;50.940;4.560;2023-02-04T09:17:38;14.35;;;5.13;;
55869;SDS011;41790;50.940;4.560;2023-02-04T09:20:09;13.18;;;5.63;;
55869;SDS011;41790;50.940;4.560;2023-02-04T09:22:35;14.82;;;5.60;;
55869;SDS011;41790;50.940;4.560;2023-02-04T09:25:02;13.45;;;4.88;;
55869;SDS011;41790;50.940;4.560;2023-02-04T09:27:31;14.90;;;4.25;;
55869;SDS011;41790;50.940;4.560;2023-02-04T09:29:57;13.10;;;4.80;;
55869;SDS011;41790;50.940;4.560;2023-02-04T09:32:23;8.80;;;3.90;;
55869;SDS011;41790;50.940;4.560;2023-02-04T09:34:49;11.02;;;4.88;;
55869;SDS011;41790;50.940;4.560;2023-02-04T09:37:17;8.50;;;4.10;;
55869;SDS011;41790;50.940;4.560;2023-02-04T09:39:53;13.77;;;4.65;;
55869;SDS011;41790;50.940;4.560;2023-02-04T09:42:19;12.73;;;4.10;;
55869;SDS011;41790;50.940;4.560;2023-02-04T09:44:48;12.88;;;4.72;;
55869;SDS011;41790;50.940;4.560;2023-02-04T09:47:14;10.02;;;4.85;;
55869;SDS011;41790;50.940;4.560;2023-02-04T09:49:44;12.55;;;4.82;;
55869;SDS011;41790;50.940;4.560;2023-02-04T09:52:14;9.23;;;3.70;;
55869;SDS011;41790;50.940;4.560;2023-02-04T09:54:42;13.30;;;4.90;;
55869;SDS011;41790;50.940;4.560;2023-02-04T09:57:16;15.27;;;5.38;;
55869;SDS011;41790;50.940;4.560;2023-02-04T09:59:44;12.65;;;4.45;;
55869;SDS011;41790;50.940;4.560;2023-02-04T10:02:18;10.18;;;4.00;;
55869;SDS011;41790;50.940;4.560;2023-02-04T10:07:18;10.25;;;3.72;;
55869;SDS011;41790;50.940;4.560;2023-02-04T10:09:49;13.25;;;4.28;;
55869;SDS011;41790;50.940;4.560;2023-02-04T10:12:17;13.15;;;3.72;;
55869;SDS011;41790;50.940;4.560;2023-02-04T10:14:44;12.20;;;4.20;;
55869;SDS011;41790;50.940;4.560;2023-02-04T10:17:10;12.02;;;4.20;;
55869;SDS011;41790;50.940;4.560;2023-02-04T10:19:40;9.43;;;3.78;;
55869;SDS011;41790;50.940;4.560;2023-02-04T10:22:09;6.72;;;3.72;;
55869;SDS011;41790;50.940;4.560;2023-02-04T10:24:42;8.43;;;3.10;;
55869;SDS011;41790;50.940;4.560;2023-02-04T10:27:09;11.55;;;4.63;;
55869;SDS011;41790;50.940;4.560;2023-02-04T10:29:41;9.70;;;3.95;;
55869;SDS011;41790;50.940;4.560;2023-02-04T10:32:30;10.82;;;3.80;;
55869;SDS011;41790;50.940;4.560;2023-02-04T10:34:58;8.43;;;3.97;;
55869;SDS011;41790;50.940;4.560;2023-02-04T10:37:26;10.68;;;3.78;;
55869;SDS011;41790;50.940;4.560;2023-02-04T10:39:53;6.72;;;3.58;;
55869;SDS011;41790;50.940;4.560;2023-02-04T10:42:23;9.00;;;4.15;;
55869;SDS011;41790;50.940;4.560;2023-02-04T10:44:51;14.65;;;4.95;;
55869;SDS011;41790;50.940;4.560;2023-02-04T10:47:18;8.57;;;3.22;;
55869;SDS011;41790;50.940;4.560;2023-02-04T10:52:24;7.25;;;2.88;;
55869;SDS011;41790;50.940;4.560;2023-02-04T10:54:58;9.52;;;2.20;;
55869;SDS011;41790;50.940;4.560;2023-02-04T10:57:26;6.90;;;2.90;;
55869;SDS011;41790;50.940;4.560;2023-02-04T10:59:54;8.77;;;3.20;;
55869;SDS011;41790;50.940;4.560;2023-02-04T11:05:23;9.03;;;3.80;;
55869;SDS011;41790;50.940;4.560;2023-02-04T11:07:53;5.82;;;2.63;;
55869;SDS011;41790;50.940;4.560;2023-02-04T11:10:28;3.30;;;1.70;;
55869;SDS011;41790;50.940;4.560;2023-02-04T11:13:00;3.25;;;2.03;;
55869;SDS011;41790;50.940;4.560;2023-02-04T11:18:47;4.28;;;2.10;;
55869;SDS011;41790;50.940;4.560;2023-02-04T11:26:39;6.30;;;2.10;;
55869;SDS011;41790;50.940;4.560;2023-02-04T11:29:22;3.10;;;1.35;;
55869;SDS011;41790;50.940;4.560;2023-02-04T11:31:59;3.30;;;1.45;;
55869;SDS011;41790;50.940;4.560;2023-02-04T11:34:28;1.55;;;1.00;;
55869;SDS011;41790;50.940;4.560;2023-02-04T11:39:39;1.55;;;1.17;;
55869;SDS011;41790;50.940;4.560;2023-02-04T11:42:17;2.15;;;1.25;;
55869;SDS011;41790;50.940;4.560;2023-02-04T11:45:01;1.67;;;1.00;;
55869;SDS011;41790;50.940;4.560;2023-02-04T11:47:49;2.53;;;2.00;;
55869;SDS011;41790;50.940;4.560;2023-02-04T11:50:21;2.30;;;1.30;;
55869;SDS011;41790;50.940;4.560;2023-02-04T11:52:50;0.93;;;0.80;;
55869;SDS011;41790;50.940;4.560;2023-02-04T11:55:18;2.17;;;1.10;;
55869;SDS011;41790;50.940;4.560;2023-02-04T11:57:44;1.27;;;0.93;;
55869;SDS011;41790;50.940;4.560;2023-02-04T12:00:16;3.10;;;1.55;;
55869;SDS011;41790;50.940;4.560;2023-02-04T12:03:23;2.10;;;1.25;;
55869;SDS011;41790;50.940;4.560;2023-02-04T12:06:03;3.47;;;1.60;;
55869;SDS011;41790;50.940;4.560;2023-02-04T12:08:31;2.78;;;1.52;;
55869;SDS011;41790;50.940;4.560;2023-02-04T12:11:00;1.23;;;1.13;;
55869;SDS011;41790;50.940;4.560;2023-02-04T12:13:52;1.45;;;1.13;;
55869;SDS011;41790;50.940;4.560;2023-02-04T12:16:21;2.03;;;1.40;;
55869;SDS011;41790;50.940;4.560;2023-02-04T12:18:48;3.47;;;1.67;;
55869;SDS011;41790;50.940;4.560;2023-02-04T12:21:14;1.20;;;1.10;;
55869;SDS011;41790;50.940;4.560;2023-02-04T12:23:48;1.70;;;1.20;;
55869;SDS011;41790;50.940;4.560;2023-02-04T12:26:14;2.15;;;1.27;;
55869;SDS011;41790;50.940;4.560;2023-02-04T12:28:40;1.92;;;1.08;;
55869;SDS011;41790;50.940;4.560;2023-02-04T12:31:10;1.25;;;1.00;;
55869;SDS011;41790;50.940;4.560;2023-02-04T12:33:46;1.20;;;1.08;;
55869;SDS011;41790;50.940;4.560;2023-02-04T12:36:22;1.52;;;1.02;;
55869;SDS011;41790;50.940;4.560;2023-02-04T12:38:56;2.03;;;1.35;;
55869;SDS011;41790;50.940;4.560;2023-02-04T12:41:35;1.63;;;1.27;;
55869;SDS011;41790;50.940;4.560;2023-02-04T12:44:03;5.07;;;1.60;;
55869;SDS011;41790;50.940;4.560;2023-02-04T12:46:29;2.67;;;1.50;;
55869;SDS011;41790;50.940;4.560;2023-02-04T12:48:56;2.88;;;1.55;;
55869;SDS011;41790;50.940;4.560;2023-02-04T12:51:22;3.03;;;1.52;;
55869;SDS011;41790;50.940;4.560;2023-02-04T12:53:48;3.17;;;1.90;;
55869;SDS011;41790;50.940;4.560;2023-02-04T12:56:14;2.92;;;1.88;;
55869;SDS011;41790;50.940;4.560;2023-02-04T12:58:48;7.60;;;2.17;;
55869;SDS011;41790;50.940;4.560;2023-02-04T13:01:14;2.90;;;2.10;;
55869;SDS011;41790;50.940;4.560;2023-02-04T13:03:40;3.28;;;2.45;;
55869;SDS011;41790;50.940;4.560;2023-02-04T13:06:06;3.25;;;2.00;;
55869;SDS011;41790;50.940;4.560;2023-02-04T13:08:32;4.97;;;2.22;;
55869;SDS011;41790;50.940;4.560;2023-02-04T13:11:07;6.82;;;2.72;;
55869;SDS011;41790;50.940;4.560;2023-02-04T13:13:33;3.92;;;2.60;;
55869;SDS011;41790;50.940;4.560;2023-02-04T13:15:59;5.28;;;2.60;;
55869;SDS011;41790;50.940;4.560;2023-02-04T13:18:25;4.80;;;2.70;;
55869;SDS011;41790;50.940;4.560;2023-02-04T13:20:54;4.95;;;3.05;;
55869;SDS011;41790;50.940;4.560;2023-02-04T13:23:19;4.55;;;2.92;;
55869;SDS011;41790;50.940;4.560;2023-02-04T13:25:48;8.82;;;3.30;;
55869;SDS011;41790;50.940;4.560;2023-02-04T13:28:15;9.32;;;3.10;;
55869;SDS011;41790;50.940;4.560;2023-02-04T13:30:42;5.20;;;3.08;;
55869;SDS011;41790;50.940;4.560;2023-02-04T13:33:17;10.50;;;3.00;;
55869;SDS011;41790;50.940;4.560;2023-02-04T13:35:44;5.50;;;3.20;;
55869;SDS011;41790;50.940;4.560;2023-02-04T13:38:12;12.95;;;3.65;;
55869;SDS011;41790;50.940;4.560;2023-02-04T13:40:37;6.63;;;3.80;;
55869;SDS011;41790;50.940;4.560;2023-02-04T13:43:04;10.07;;;3.45;;
55869;SDS011;41790;50.940;4.560;2023-02-04T13:45:30;7.95;;;3.47;;
55869;SDS011;41790;50.940;4.560;2023-02-04T13:48:00;5.57;;;3.30;;
55869;SDS011;41790;50.940;4.560;2023-02-04T13:50:26;5.90;;;3.33;;
55869;SDS011;41790;50.940;4.560;2023-02-04T13:52:57;8.32;;;4.03;;
55869;SDS011;41790;50.940;4.560;2023-02-04T13:55:34;8.00;;;3.53;;
55869;SDS011;41790;50.940;4.560;2023-02-04T13:58:00;11.05;;;3.63;;
55869;SDS011;41790;50.940;4.560;2023-02-04T14:00:35;9.40;;;3.70;;
55869;SDS011;41790;50.940;4.560;2023-02-04T14:03:10;5.90;;;3.50;;
55869;SDS011;41790;50.940;4.560;2023-02-04T14:05:36;8.00;;;3.30;;
55869;SDS011;41790;50.940;4.560;2023-02-04T14:08:02;8.70;;;3.47;;
55869;SDS011;41790;50.940;4.560;2023-02-04T14:10:28;7.40;;;3.28;;
55869;SDS011;41790;50.940;4.560;2023-02-04T14:13:05;7.95;;;3.88;;
55869;SDS011;41790;50.940;4.560;2023-02-04T14:15:33;8.18;;;3.88;;
55869;SDS011;41790;50.940;4.560;2023-02-04T14:18:01;9.50;;;3.83;;
55869;SDS011;41790;50.940;4.560;2023-02-04T14:23:03;6.50;;;3.88;;
55869;SDS011;41790;50.940;4.560;2023-02-04T14:25:32;6.85;;;4.30;;
55869;SDS011;41790;50.940;4.560;2023-02-04T14:27:58;6.68;;;3.60;;
55869;SDS011;41790;50.940;4.560;2023-02-04T14:30:33;8.30;;;4.10;;
55869;SDS011;41790;50.940;4.560;2023-02-04T14:33:02;8.30;;;3.58;;
55869;SDS011;41790;50.940;4.560;2023-02-04T14:35:28;8.50;;;3.50;;
55869;SDS011;41790;50.940;4.560;2023-02-04T14:37:54;9.68;;;4.07;;
55869;SDS011;41790;50.940;4.560;2023-02-04T14:40:29;10.23;;;4.18;;
55869;SDS011;41790;50.940;4.560;2023-02-04T14:42:55;13.13;;;4.28;;
55869;SDS011;41790;50.940;4.560;2023-02-04T14:45:21;7.18;;;3.70;;
55869;SDS011;41790;50.940;4.560;2023-02-04T14:47:47;6.70;;;4.28;;
55869;SDS011;41790;50.940;4.560;2023-02-04T14:50:15;11.90;;;4.18;;
55869;SDS011;41790;50.940;4.560;2023-02-04T14:52:41;8.00;;;3.85;;
55869;SDS011;41790;50.940;4.560;2023-02-04T14:55:10;8.40;;;4.03;;
55869;SDS011;41790;50.940;4.560;2023-02-04T14:57:37;8.88;;;3.80;;
55869;SDS011;41790;50.940;4.560;2023-02-04T15:00:03;10.82;;;4.45;;
55869;SDS011;41790;50.940;4.560;2023-02-04T15:02:30;10.68;;;4.78;;
55869;SDS011;41790;50.940;4.560;2023-02-04T15:04:56;11.90;;;3.95;;
55869;SDS011;41790;50.940;4.560;2023-02-04T15:07:22;7.47;;;4.15;;
55869;SDS011;41790;50.940;4.560;2023-02-04T15:09:48;10.70;;;4.43;;
55869;SDS011;41790;50.940;4.560;2023-02-04T15:12:17;9.55;;;4.25;;
55869;SDS011;41790;50.940;4.560;2023-02-04T15:14:43;7.40;;;3.90;;
55869;SDS011;41790;50.940;4.560;2023-02-04T15:17:13;8.02;;;4.30;;
55869;SDS011;41790;50.940;4.560;2023-02-04T15:19:42;8.48;;;4.38;;
55869;SDS011;41790;50.940;4.560;2023-02-04T15:22:11;14.60;;;4.68;;
55869;SDS011;41790;50.940;4.560;2023-02-04T15:24:37;10.63;;;5.43;;
55869;SDS011;41790;50.940;4.560;2023-02-04T15:27:04;11.10;;;4.25;;
55869;SDS011;41790;50.940;4.560;2023-02-04T15:29:30;10.50;;;4.20;;